Airfield :
LOGIN :

Register | Disclaimer

   EN    FR    IT 

 










Legend :    VFR   Marginal VFR   IFR   Intensive IFR   Very Intensive IFR
Visi :
Ceiling :
>= 8 km
>= 3000ft
5 to 8 km
1000 to 3000 ft
1500m to 5 km
500 to 1000 ft
800 to 1500m
200 to 500 ft
< 800m
< 200 ft
Symbols :   Thunderstorms  Fog  Heavy snow  Heavy precipitations  Wind > 20 kt
SIGMETs :     Misc.  Thunderstorms  Icing  Turbulence  Mountain Waves  Volcanic Ashes







- Airport Elevation : 12 ft
- IATA code : NCE
- Download approach charts


LFMN - Nice

CURRENT METAR :
  • 252300Z 33007KT 9999 SCT023 OVC036 04/02 Q1007 NOSIG

EXPIRED METARs :
  • 252230Z 11006KT 080V170 9999 SCT023 OVC036 05/M00 Q1007 NOSIG
  • 252200Z 09008KT 9999 -RA SCT013 OVC023 04/02 Q1007 NOSIG
  • 252130Z 06010KT 020V090 9999 -RA BKN013 OVC020 04/02 Q1007 NOSIG
  • 252100Z 03010KT 6000 RA SCT015 BKN023 OVC030 04/02 Q1007 NOSIG
  • 252030Z 04010KT 8000 -RA SCT015 BKN023 OVC030 04/02 Q1007 NOSIG

TAF TAF LFMN
Valid from the 25 at 21:00 until the 27 at 03:00 UTC


252000Z 2521/2703 04008KT 9999 SCT016 OVC025
PROB40
TEMPO 2606/2613 1200 RASN BKN006
ATIS : +33 4 93 17 21 16
No reported NOTAMs for that airfield.
3 SIGMETs reported for the Marseille FIR (LFMM) :
 
Severe turbulence
LFMM SIGMET 5 VALID 260000/260400 LFPW
LFMM MARSEILLE FIR/UIR SEV TURB FCST WI N4500 E00415 - N4500 E00515 - N4230 E00530 - N4230 E00415 - N4500 E00415 SFC/FL050 STNR NC=
Severe turbulence
LFMM SIGMET 4 VALID 252000/260000 LFPW
LFMM MARSEILLE FIR/UIR SEV TURB FCST WI N4345 E00745 - N4315 E00930 - N4145 E00745 - N4300 E00615 - N4345 E00745 SFC/FL080 STNR WKN=
Severe turbulence
LFMM SIGMET 3 VALID 252000/260000 LFPW
LFMM MARSEILLE FIR/UIR SEV TURB FCST WI N4500 E00415 - N4500 E00515 - N4230 E00530 - N4230 E00415 - N4500 E00415 SFC/FL050 STNR NC=



MET'MAP, your aeronautical weather chart ! - Copyright ORBIFLY December 2007 - Disclaimer

ORBIFLY MET'MAP TEAM :

Programming & Development : Alexandra Zaïnal
Concept & Development : Baudouin d'Aumeries
Co-Development & Prog : Marc-Olivier Méhu
Technical & hardware support : Manuel Goepfert

Contact : metmap@orbifly.com




SOURCES & CREDITS :

   NOAA